Time;durP1;ratioP1;P1;durP2;ratioP2;P2;SDS_P1;SDS_P2;PMS_P1;PMS_P2;Temp;Humidity;BMP_temperature;BMP_pressure;BME280_temperature;BME280_humidity;BME280_pressure;Samples;Min_cycle;Max_cycle;Signal;HPM_P1;HPM_P2
2022/11/19 00:00:39;;;;;;;;;;;;;;;17.15;49.43;99509.22;4865693;29;1855;-47
2022/11/19 00:03:04;;;;;;;;;;;;;;;16.78;48.83;99511.91;4863472;29;1168;-44
2022/11/19 00:05:29;;;;;;;;;;;;;;;17.59;49.11;99518.69;4863775;29;1136;-44
2022/11/19 00:07:55;;;;;;;;;;;;;;;16.97;49.45;99517.31;4871989;29;1140;-45
2022/11/19 00:10:20;;;;;;;;;;;;;;;16.78;48.34;99531.09;4868016;29;1274;-43
2022/11/19 00:12:55;;;;;;;;;;;;;;;16.69;47.56;99533.75;4863531;29;1164;-44
2022/11/19 00:15:21;;;;;;;;;;;;;;;17.19;48.56;99537.72;4864674;29;1081;-47
2022/11/19 00:17:46;;;;;;;;;;;;;;;17.08;49.01;99532.44;4867021;29;1910;-44
2022/11/19 00:20:13;;;;;;;;;;;;;;;16.67;48.73;99546.97;4867225;29;1108;-42
2022/11/19 00:22:40;;;;;;;;;;;;;;;17.87;48.89;99543.31;4866863;29;1219;-44
2022/11/19 00:25:06;;;;;;;;;;;;;;;17.15;49.27;99544.94;4867082;29;1069;-45
2022/11/19 00:27:31;;;;;;;;;;;;;;;16.88;48.38;99552.88;4867157;29;1215;-46
2022/11/19 00:29:57;;;;;;;;;;;;;;;16.73;47.71;99555.91;4867072;29;1092;-46
2022/11/19 00:32:22;;;;;;;;;;;;;;;16.59;47.03;99569.63;4866438;29;2245;-44
2022/11/19 00:34:47;;;;;;;;;;;;;;;17.75;48.46;99568.63;4866703;29;1113;-46
2022/11/19 00:37:13;;;;;;;;;;;;;;;17.00;48.99;99557.88;4866412;29;1985;-44
2022/11/19 00:39:38;;;;;;;;;;;;;;;16.83;48.07;99555.72;4866823;29;1111;-45
2022/11/19 00:42:04;;;;;;;;;;;;;;;16.63;47.42;99561.59;4866984;29;1081;-44
2022/11/19 00:44:29;;;;;;;;;;;;;;;17.31;48.79;99573.72;4866762;29;1148;-43
2022/11/19 00:46:55;;;;;;;;;;;;;;;16.85;48.68;99569.16;4866899;29;1096;-45
2022/11/19 00:49:20;;;;;;;;;;;;;;;16.71;48.41;99578.16;4866553;29;1092;-47
2022/11/19 00:51:46;;;;;;;;;;;;;;;17.30;48.90;99574.84;4865916;29;2169;-42
2022/11/19 00:54:11;;;;;;;;;;;;;;;16.83;48.22;99576.84;4867259;29;1313;-42
2022/11/19 00:56:36;;;;;;;;;;;;;;;17.22;48.95;99581.03;4866266;29;1903;-47
2022/11/19 00:59:02;;;;;;;;;;;;;;;17.12;48.60;99575.78;4866690;29;1156;-45
2022/11/19 01:01:28;;;;;;;;;;;;;;;16.68;48.16;99577.97;4866094;29;1151;-43
2022/11/19 01:03:53;;;;;;;;;;;;;;;17.74;48.88;99573.31;4866993;29;1219;-47
2022/11/19 01:06:19;;;;;;;;;;;;;;;17.08;49.29;99584.63;4866734;29;1188;-46
2022/11/19 01:08:45;;;;;;;;;;;;;;;16.82;48.34;99576.06;4879097;29;1140;-43
2022/11/19 01:11:18;;;;;;;;;;;;;;;16.68;47.71;99587.03;4866724;29;1140;-47
2022/11/19 01:13:43;;;;;;;;;;;;;;;17.68;48.63;99596.53;4866582;29;1219;-44
2022/11/19 01:16:10;;;;;;;;;;;;;;;16.98;48.98;99592.25;4849396;29;2016;-44
2022/11/19 01:18:36;;;;;;;;;;;;;;;16.79;47.98;99608.78;4866338;29;1144;-47
2022/11/19 01:21:01;;;;;;;;;;;;;;;17.48;48.75;99603.31;4865896;29;1224;-44
2022/11/19 01:23:27;;;;;;;;;;;;;;;17.18;49.43;99610.25;4865584;29;1021;-47
2022/11/19 01:25:52;;;;;;;;;;;;;;;16.78;48.66;99610.72;4865767;29;1283;-43
2022/11/19 01:28:18;;;;;;;;;;;;;;;16.75;47.77;99603.91;4864866;29;1485;-44
2022/11/19 01:30:43;;;;;;;;;;;;;;;16.71;46.95;99613.84;4866190;29;1151;-48
2022/11/19 01:33:09;;;;;;;;;;;;;;;17.89;48.42;99618.06;4866591;29;1156;-42
2022/11/19 01:35:34;;;;;;;;;;;;;;;17.03;49.21;99620.44;4866207;29;1973;-46
2022/11/19 01:38:00;;;;;;;;;;;;;;;16.85;48.34;99619.38;4865413;29;1232;-47
2022/11/19 01:40:28;;;;;;;;;;;;;;;17.50;49.02;99611.22;4865993;29;1184;-44
2022/11/19 01:42:53;;;;;;;;;;;;;;;16.95;48.74;99612.91;4866023;29;1101;-44
2022/11/19 01:45:35;;;;;;;;;;;;;;;16.87;49.16;99621.81;4865577;29;1227;-44
2022/11/19 01:48:03;;;;;;;;;;;;;;;17.42;49.25;99626.53;4866027;29;1164;-43
2022/11/19 01:50:33;;;;;;;;;;;;;;;16.94;48.84;99625.00;4865513;29;906;-46
2022/11/19 01:52:58;;;;;;;;;;;;;;;16.73;48.01;99624.53;4849249;29;1208;-44
2022/11/19 01:55:24;;;;;;;;;;;;;;;17.34;48.95;99628.06;4849156;29;1156;-46
2022/11/19 01:57:51;;;;;;;;;;;;;;;17.02;49.14;99623.47;4849284;29;1915;-47
2022/11/19 02:00:17;;;;;;;;;;;;;;;16.90;47.98;99626.72;4864967;29;1112;-44
2022/11/19 02:02:42;;;;;;;;;;;;;;;16.67;47.54;99628.50;4865628;29;916;-45
2022/11/19 02:05:08;;;;;;;;;;;;;;;17.48;48.38;99629.97;4865883;29;1128;-47
2022/11/19 02:07:33;;;;;;;;;;;;;;;17.01;48.89;99625.44;4871193;29;1176;-45
2022/11/19 02:09:59;;;;;;;;;;;;;;;16.83;48.21;99627.09;4871254;29;1147;-44
2022/11/19 02:12:27;;;;;;;;;;;;;;;16.72;47.99;99626.47;4865385;29;1175;-46
2022/11/19 02:15:04;;;;;;;;;;;;;;;17.35;48.88;99624.19;4865117;29;890;-45
2022/11/19 02:17:50;;;;;;;;;;;;;;;16.84;48.57;99625.16;4865835;29;1984;-48
2022/11/19 02:20:16;;;;;;;;;;;;;;;16.68;47.63;99630.94;4854783;29;1579;-45
2022/11/19 02:22:50;;;;;;;;;;;;;;;17.73;48.55;99637.66;4864997;29;1159;-46
2022/11/19 02:25:25;;;;;;;;;;;;;;;17.03;48.86;99645.16;4865262;29;1045;-48
2022/11/19 02:28:09;;;;;;;;;;;;;;;16.75;48.31;99650.56;4865473;29;1148;-46
2022/11/19 02:30:35;;;;;;;;;;;;;;;16.66;47.20;99648.81;4865035;29;1113;-44
2022/11/19 02:33:01;;;;;;;;;;;;;;;17.64;48.59;99661.50;4848875;29;1144;-45
2022/11/19 02:35:46;;;;;;;;;;;;;;;16.94;48.87;99668.94;4865328;29;1120;-42
2022/11/19 02:38:38;;;;;;;;;;;;;;;16.72;48.13;99686.88;4847417;29;894;-46
2022/11/19 02:41:32;;;;;;;;;;;;;;;16.62;48.08;99689.78;4861655;29;1289;-43
2022/11/19 02:44:57;;;;;;;;;;;;;;;17.06;48.67;99693.16;4851274;29;1367;-45
2022/11/19 02:46:41;;;;;;;;;;;;;;;16.73;48.00;99699.47;4851150;29;1538;-45
2022/11/19 02:49:07;;;;;;;;;;;;;;;16.53;47.46;99703.38;4865052;29;1104;-47
2022/11/19 02:51:32;;;;;;;;;;;;;;;16.48;46.64;99702.63;4848177;29;1120;-43
2022/11/19 02:53:58;;;;;;;;;;;;;;;16.34;46.55;99705.31;4864725;29;1195;-45
2022/11/19 02:56:42;;;;;;;;;;;;;;;17.03;48.10;99715.75;4864685;29;1907;-43
2022/11/19 03:04:35;;;;;;;;;;;;;;;16.74;48.48;99717.56;4864553;29;1152;-42
2022/11/19 03:07:02;;;;;;;;;;;;;;;16.98;48.60;99724.06;4865988;29;1203;-41
2022/11/19 03:09:28;;;;;;;;;;;;;;;17.13;48.79;99736.72;4876173;29;1107;-49
2022/11/19 03:11:56;;;;;;;;;;;;;;;16.73;48.51;99728.84;4847787;29;1160;-46
2022/11/19 03:17:14;;;;;;;;;;;;;;;16.96;48.62;99756.50;4850275;29;1911;-44
2022/11/19 03:19:56;;;;;;;;;;;;;;;16.73;47.89;99764.53;4847691;29;1195;-48
2022/11/19 03:22:30;;;;;;;;;;;;;;;17.39;48.68;99764.53;4847189;29;1215;-44
2022/11/19 03:24:57;;;;;;;;;;;;;;;16.82;49.17;99772.94;4864291;29;1163;-42
2022/11/19 03:27:24;;;;;;;;;;;;;;;18.48;48.63;99780.44;4857561;29;1227;-45
2022/11/19 03:29:51;;;;;;;;;;;;;;;18.18;49.60;99790.22;4864085;29;1171;-48
2022/11/19 03:32:21;;;;;;;;;;;;;;;17.47;49.45;99785.00;4863961;29;1207;-44
2022/11/19 03:34:46;;;;;;;;;;;;;;;17.08;49.03;99793.38;4864647;29;1113;-43
2022/11/19 03:37:12;;;;;;;;;;;;;;;17.07;47.76;99805.47;4863870;29;1903;-47
2022/11/19 03:39:37;;;;;;;;;;;;;;;16.81;47.73;99805.03;4847586;29;1132;-44
2022/11/19 03:42:04;;;;;;;;;;;;;;;16.72;47.10;99807.66;4847206;29;1192;-46
2022/11/19 03:44:35;;;;;;;;;;;;;;;17.32;48.05;99819.06;4847277;29;1153;-44
2022/11/19 03:47:01;;;;;;;;;;;;;;;17.23;49.15;99819.75;4863889;29;1171;-47
2022/11/19 03:49:30;;;;;;;;;;;;;;;16.88;48.52;99835.69;4863820;29;1136;-45
2022/11/19 03:52:00;;;;;;;;;;;;;;;16.79;47.57;99836.66;4863444;29;943;-42
2022/11/19 03:54:26;;;;;;;;;;;;;;;17.54;48.23;99843.94;4846957;29;1148;-43
2022/11/19 03:56:51;;;;;;;;;;;;;;;16.99;49.17;99855.59;4847263;29;1974;-44
2022/11/19 03:59:17;;;;;;;;;;;;;;;16.87;48.33;99853.28;4846684;29;1215;-45
2022/11/19 04:01:43;;;;;;;;;;;;;;;16.77;47.19;99858.91;4863798;29;1188;-43
2022/11/19 04:06:52;;;;;;;;;;;;;;;16.54;46.40;99882.59;4863403;29;1226;-45
2022/11/19 04:09:18;;;;;;;;;;;;;;;16.76;46.94;99885.56;4876352;29;1215;-44
2022/11/19 04:11:43;;;;;;;;;;;;;;;17.27;48.51;99891.41;4863777;29;1190;-49
2022/11/19 04:14:09;;;;;;;;;;;;;;;16.71;48.42;99885.63;4863299;29;1152;-46
2022/11/19 04:16:34;;;;;;;;;;;;;;;16.61;47.88;99894.00;4863648;29;1899;-48
2022/11/19 04:18:59;;;;;;;;;;;;;;;16.62;47.86;99894.81;4863647;29;1219;-43
2022/11/19 04:21:25;;;;;;;;;;;;;;;16.89;48.93;99894.19;4863860;29;1121;-45
2022/11/19 04:23:50;;;;;;;;;;;;;;;16.57;48.18;99903.94;4863409;29;1301;-45
2022/11/19 04:26:16;;;;;;;;;;;;;;;16.50;47.42;99917.22;4863397;29;1394;-47
2022/11/19 04:28:41;;;;;;;;;;;;;;;17.38;48.59;99911.31;4863200;29;1128;-47
2022/11/19 04:31:06;;;;;;;;;;;;;;;16.84;48.61;99916.19;4862457;29;1199;-45
2022/11/19 04:33:32;;;;;;;;;;;;;;;16.56;47.93;99929.75;4862933;29;1521;-46
2022/11/19 04:35:57;;;;;;;;;;;;;;;16.55;47.09;99939.91;4863163;29;1957;-48
2022/11/19 04:38:23;;;;;;;;;;;;;;;16.32;47.05;99946.22;4863285;29;1164;-50
2022/11/19 04:40:48;;;;;;;;;;;;;;;17.28;47.87;99959.00;4862260;29;1109;-47
2022/11/19 04:43:14;;;;;;;;;;;;;;;16.83;48.69;99963.97;4863354;29;1164;-50
2022/11/19 04:45:39;;;;;;;;;;;;;;;16.56;47.81;99973.66;4863156;29;1163;-46
2022/11/19 04:48:05;;;;;;;;;;;;;;;17.53;48.44;99978.94;4863207;29;1057;-49
2022/11/19 04:50:30;;;;;;;;;;;;;;;16.93;49.09;99983.13;4863023;29;1176;-49
2022/11/19 04:52:55;;;;;;;;;;;;;;;16.69;48.44;99983.09;4850310;29;967;-45
2022/11/19 04:55:21;;;;;;;;;;;;;;;17.00;49.42;99988.22;4862901;29;1164;-45
2022/11/19 04:57:48;;;;;;;;;;;;;;;17.53;50.14;99995.41;4862351;29;1930;-45
2022/11/19 05:00:14;;;;;;;;;;;;;;;16.91;49.44;99993.56;4863364;29;1171;-45
2022/11/19 05:02:39;;;;;;;;;;;;;;;16.72;48.39;100001.75;4864898;29;1144;-46
2022/11/19 05:05:05;;;;;;;;;;;;;;;17.61;49.60;100003.00;4865702;29;1244;-51
2022/11/19 05:07:30;;;;;;;;;;;;;;;16.91;49.71;99999.88;4865189;29;1140;-47
2022/11/19 05:09:56;;;;;;;;;;;;;;;16.78;48.56;100008.81;4865526;29;1133;-51
2022/11/19 05:12:21;;;;;;;;;;;;;;;17.48;49.60;100014.75;4865899;29;1148;-45
2022/11/19 05:14:47;;;;;;;;;;;;;;;16.99;49.29;100019.56;4867989;29;1152;-48
2022/11/19 05:17:12;;;;;;;;;;;;;;;16.73;48.44;100028.06;4870420;29;1978;-47
2022/11/19 05:19:37;;;;;;;;;;;;;;;17.47;49.52;100024.13;4867061;29;1215;-49
2022/11/19 05:22:03;;;;;;;;;;;;;;;16.97;49.47;100036.34;4866541;29;1164;-48
2022/11/19 05:24:28;;;;;;;;;;;;;;;16.67;48.72;100048.47;4865867;29;1227;-46
2022/11/19 05:26:54;;;;;;;;;;;;;;;17.61;49.28;100046.97;4863958;29;2643;-48
2022/11/19 05:29:19;;;;;;;;;;;;;;;16.92;49.64;100050.13;4863418;29;1865;-48
2022/11/19 05:31:44;;;;;;;;;;;;;;;16.85;48.39;100061.44;4865534;29;2160;-48
2022/11/19 05:34:10;;;;;;;;;;;;;;;16.59;47.87;100077.34;4865178;29;1833;-50
2022/11/19 05:36:35;;;;;;;;;;;;;;;16.75;48.25;100076.09;4865748;29;2118;-53
2022/11/19 05:39:01;;;;;;;;;;;;;;;17.06;49.00;100080.44;4865455;29;2296;-48
2022/11/19 05:41:26;;;;;;;;;;;;;;;16.69;48.61;100087.41;4865464;29;1874;-47
2022/11/19 05:43:51;;;;;;;;;;;;;;;17.53;48.83;100094.38;4865125;29;2119;-51
2022/11/19 05:46:17;;;;;;;;;;;;;;;16.95;48.74;100107.22;4865396;29;1238;-46
2022/11/19 05:48:42;;;;;;;;;;;;;;;16.63;48.14;100118.78;4865671;29;1128;-49
2022/11/19 05:51:11;;;;;;;;;;;;;;;16.54;47.51;100126.84;4866650;29;1117;-46
2022/11/19 05:53:37;;;;;;;;;;;;;;;17.37;48.74;100126.75;4865647;29;1372;-49
2022/11/19 05:56:02;;;;;;;;;;;;;;;16.72;48.84;100150.00;4865643;29;1911;-50
2022/11/19 05:58:27;;;;;;;;;;;;;;;16.72;47.65;100150.00;4865697;29;1109;-47
2022/11/19 06:00:53;;;;;;;;;;;;;;;16.49;47.52;100159.81;4865530;29;1148;-51
2022/11/19 06:03:19;;;;;;;;;;;;;;;17.26;48.15;100156.28;4865116;29;1073;-49
2022/11/19 06:05:44;;;;;;;;;;;;;;;17.04;49.15;100174.13;4865414;29;1186;-46
2022/11/19 06:08:10;;;;;;;;;;;;;;;16.76;48.01;100178.50;4865123;29;1097;-47
2022/11/19 06:10:35;;;;;;;;;;;;;;;17.58;48.81;100180.34;4865487;29;1151;-50
2022/11/19 06:13:01;;;;;;;;;;;;;;;16.89;49.08;100199.81;4867003;29;2541;-47
2022/11/19 06:15:26;;;;;;;;;;;;;;;17.02;48.98;100201.06;4867464;29;1132;-47
2022/11/19 06:17:51;;;;;;;;;;;;;;;17.55;49.53;100202.94;4864645;29;1907;-46
2022/11/19 06:20:17;;;;;;;;;;;;;;;17.02;49.30;100194.75;4865148;29;1121;-48
2022/11/19 06:22:42;;;;;;;;;;;;;;;17.69;49.61;100196.72;4865048;29;1290;-48
2022/11/19 06:25:08;;;;;;;;;;;;;;;17.18;49.79;100198.16;4865158;29;1045;-47
2022/11/19 06:27:33;;;;;;;;;;;;;;;16.97;48.64;100208.53;4865457;29;1406;-49
2022/11/19 06:29:59;;;;;;;;;;;;;;;16.76;48.20;100214.22;4865199;29;1140;-48
2022/11/19 06:32:24;;;;;;;;;;;;;;;17.90;46.64;100213.78;4864879;29;1093;-46
2022/11/19 06:34:50;;;;;;;;;;;;;;;17.35;48.14;100223.25;4864868;29;1160;-48
2022/11/19 06:37:15;;;;;;;;;;;;;;;17.03;49.26;100235.66;4864976;29;1970;-49
2022/11/19 06:39:41;;;;;;;;;;;;;;;16.87;49.67;100242.38;4869031;29;1148;-49
2022/11/19 06:42:40;;;;;;;;;;;;;;;16.73;50.33;100243.06;4876967;29;2417;-49
2022/11/19 06:44:58;;;;;;;;;;;;;;;16.61;50.99;100248.09;4849498;29;1664;-50
2022/11/19 06:47:24;;;;;;;;;;;;;;;16.53;51.29;100248.69;4864606;29;1137;-51
2022/11/19 06:49:49;;;;;;;;;;;;;;;16.45;51.82;100246.56;4864602;29;1121;-47
2022/11/19 06:52:15;;;;;;;;;;;;;;;16.32;52.09;100239.78;4872013;29;1089;-46
2022/11/19 06:54:40;;;;;;;;;;;;;;;16.22;52.44;100236.00;4868003;29;1238;-49
2022/11/19 06:57:06;;;;;;;;;;;;;;;16.17;52.42;100222.34;4864525;29;1911;-48
2022/11/19 06:59:31;;;;;;;;;;;;;;;16.10;52.75;100234.72;4864238;29;1140;-50
2022/11/19 07:01:56;;;;;;;;;;;;;;;16.03;53.07;100235.84;4851539;29;1073;-50
2022/11/19 07:04:22;;;;;;;;;;;;;;;15.99;53.03;100245.75;4871853;29;1147;-46
2022/11/19 07:06:47;;;;;;;;;;;;;;;17.12;51.00;100254.25;4865868;29;1333;-49
2022/11/19 07:09:13;;;;;;;;;;;;;;;16.83;51.53;100253.13;4864017;29;1120;-47
2022/11/19 07:11:38;;;;;;;;;;;;;;;16.42;52.77;100257.00;4864183;29;2294;-50
2022/11/19 07:14:04;;;;;;;;;;;;;;;16.25;53.19;100253.81;4866271;29;1120;-48
2022/11/19 07:16:30;;;;;;;;;;;;;;;16.15;53.79;100257.44;4871942;29;1976;-48
2022/11/19 07:18:56;;;;;;;;;;;;;;;16.28;53.29;100246.94;4868195;29;1132;-49
2022/11/19 07:21:21;;;;;;;;;;;;;;;17.55;50.23;100259.84;4863789;29;1117;-47
2022/11/19 07:23:47;;;;;;;;;;;;;;;16.71;52.38;100258.97;4863641;29;1124;-48
2022/11/19 07:26:13;;;;;;;;;;;;;;;16.42;53.23;100257.00;4863528;29;1120;-45
2022/11/19 07:28:38;;;;;;;;;;;;;;;16.23;53.63;100269.75;4871976;29;1163;-48
2022/11/19 07:31:04;;;;;;;;;;;;;;;16.17;53.83;100270.88;4865322;29;1191;-47
2022/11/19 07:33:29;;;;;;;;;;;;;;;16.06;54.25;100273.69;4864332;29;1089;-45
2022/11/19 07:35:55;;;;;;;;;;;;;;;17.31;51.56;100273.59;4863873;29;1982;-48
2022/11/19 07:38:20;;;;;;;;;;;;;;;16.91;52.50;100288.25;4864444;29;1195;-44
2022/11/19 07:40:55;;;;;;;;;;;;;;;16.47;53.64;100296.50;4872812;29;1168;-50
2022/11/19 07:43:20;;;;;;;;;;;;;;;16.30;53.81;100297.69;4864559;29;2608;-47
2022/11/19 07:45:46;;;;;;;;;;;;;;;16.18;54.33;100300.75;4863412;29;1109;-50
2022/11/19 07:48:11;;;;;;;;;;;;;;;16.41;53.82;100313.00;4863769;29;1223;-48
2022/11/19 07:50:37;;;;;;;;;;;;;;;17.22;51.68;100317.34;4863426;29;1132;-47
2022/11/19 07:53:03;;;;;;;;;;;;;;;16.56;53.90;100319.47;4870960;29;1175;-43
2022/11/19 07:55:28;;;;;;;;;;;;;;;16.33;54.31;100327.31;4863644;29;1191;-48
2022/11/19 07:57:54;;;;;;;;;;;;;;;16.18;54.34;100324.66;4863540;29;1892;-48
2022/11/19 08:00:19;;;;;;;;;;;;;;;16.14;54.74;100331.78;4863430;29;1239;-48
2022/11/19 08:02:44;;;;;;;;;;;;;;;17.57;51.31;100329.09;4863629;29;1120;-50
2022/11/19 08:05:10;;;;;;;;;;;;;;;16.79;53.24;100333.59;4869781;29;1144;-50
2022/11/19 08:07:36;;;;;;;;;;;;;;;16.47;54.25;100337.66;4863532;29;1104;-47
2022/11/19 08:10:01;;;;;;;;;;;;;;;16.32;54.68;100347.59;4863486;29;1105;-48
2022/11/19 08:12:27;;;;;;;;;;;;;;;16.14;54.60;100351.00;4864975;29;1974;-45
2022/11/19 08:14:53;;;;;;;;;;;;;;;16.36;54.49;100359.66;4861848;29;1315;-47
2022/11/19 08:20:02;;;;;;;;;;;;;;;16.67;53.92;100354.00;4863583;29;1136;-48
2022/11/19 08:22:28;;;;;;;;;;;;;;;16.40;54.61;100358.00;4863136;29;1160;-49
2022/11/19 08:24:54;;;;;;;;;;;;;;;16.23;54.74;100365.78;4863703;29;1159;-50
2022/11/19 08:27:19;;;;;;;;;;;;;;;16.14;54.96;100359.22;4862072;29;1144;-44
2022/11/19 08:29:45;;;;;;;;;;;;;;;16.05;55.24;100370.78;4871543;29;886;-47
2022/11/19 08:32:10;;;;;;;;;;;;;;;17.07;53.24;100373.25;4863162;29;1184;-48
2022/11/19 08:34:35;;;;;;;;;;;;;;;16.77;54.08;100378.66;4863536;29;1157;-47
2022/11/19 08:37:01;;;;;;;;;;;;;;;16.40;54.91;100374.47;4864371;29;2045;-47
2022/11/19 08:39:26;;;;;;;;;;;;;;;16.20;55.05;100388.25;4867084;29;1125;-45
2022/11/19 08:44:36;;;;;;;;;;;;;;;16.99;53.82;100393.09;4857190;29;1088;-49
2022/11/19 08:47:01;;;;;;;;;;;;;;;16.96;53.67;100382.66;4873405;29;1120;-47
2022/11/19 08:49:27;;;;;;;;;;;;;;;16.45;54.80;100381.03;4866375;29;1230;-44
2022/11/19 08:51:52;;;;;;;;;;;;;;;16.29;55.14;100380.28;4866859;29;1133;-43
2022/11/19 08:54:18;;;;;;;;;;;;;;;16.19;55.07;100386.63;4867180;29;867;-46
2022/11/19 08:56:43;;;;;;;;;;;;;;;16.07;55.27;100390.53;4866676;29;1916;-45
2022/11/19 08:59:08;;;;;;;;;;;;;;;16.29;55.25;100396.75;4866531;29;1140;-46
2022/11/19 09:01:34;;;;;;;;;;;;;;;17.24;53.04;100392.09;4866573;29;1192;-51
2022/11/19 09:03:59;;;;;;;;;;;;;;;16.57;54.75;100393.31;4866500;29;1135;-47
2022/11/19 09:06:25;;;;;;;;;;;;;;;16.33;55.15;100387.66;4878855;29;1199;-45
2022/11/19 09:08:51;;;;;;;;;;;;;;;16.18;55.32;100387.72;4866228;29;1222;-50
2022/11/19 09:11:17;;;;;;;;;;;;;;;16.08;55.65;100394.06;4866635;29;1100;-51
2022/11/19 09:13:43;;;;;;;;;;;;;;;17.21;53.40;100398.97;4868547;29;2562;-50
2022/11/19 09:16:08;;;;;;;;;;;;;;;16.87;54.18;100398.91;4866099;29;1907;-47
2022/11/19 09:18:37;;;;;;;;;;;;;;;16.44;55.19;100399.44;4871275;29;974;-48
2022/11/19 09:21:03;;;;;;;;;;;;;;;16.26;55.37;100392.66;4865774;29;1179;-48
2022/11/19 09:23:28;;;;;;;;;;;;;;;16.11;55.41;100396.25;4878664;29;1179;-47
2022/11/19 09:25:57;;;;;;;;;;;;;;;16.39;55.31;100396.69;4866240;29;2404;-45
2022/11/19 09:28:23;;;;;;;;;;;;;;;17.39;52.96;100407.59;4865568;29;2530;-48
2022/11/19 09:30:58;;;;;;;;;;;;;;;16.64;54.80;100420.44;4868757;29;1955;-49
2022/11/19 09:33:23;;;;;;;;;;;;;;;16.34;55.35;100416.75;4874189;29;2338;-49
2022/11/19 09:35:49;;;;;;;;;;;;;;;16.22;55.46;100413.50;4866170;29;1936;-44
2022/11/19 09:38:14;;;;;;;;;;;;;;;16.13;55.38;100409.69;4865092;29;2018;-44
2022/11/19 09:40:43;;;;;;;;;;;;;;;17.31;53.49;100422.78;4866598;29;2079;-42
2022/11/19 09:43:12;;;;;;;;;;;;;;;16.80;54.65;100428.59;4866417;29;2177;-43
2022/11/19 09:45:51;;;;;;;;;;;;;;;16.40;55.51;100440.31;4837124;29;1142;-41
2022/11/19 09:48:28;;;;;;;;;;;;;;;16.23;55.71;100431.63;4865338;29;1132;-47
2022/11/19 09:51:04;;;;;;;;;;;;;;;16.18;55.54;100435.19;4849547;29;744;-42
2022/11/19 09:53:31;;;;;;;;;;;;;;;16.26;55.65;100442.03;4837809;29;902;-44
2022/11/19 09:55:58;;;;;;;;;;;;;;;17.47;53.18;100439.16;4866000;29;1915;-47
2022/11/19 09:58:34;;;;;;;;;;;;;;;16.66;54.96;100451.22;4848027;29;1330;-42
2022/11/19 10:01:00;;;;;;;;;;;;;;;16.38;55.56;100433.47;4848981;29;1153;-45
2022/11/19 10:03:25;;;;;;;;;;;;;;;16.22;55.58;100424.47;4865714;29;1109;-46
2022/11/19 10:05:59;;;;;;;;;;;;;;;16.11;55.89;100422.88;4857333;29;1202;-44
2022/11/19 10:08:31;;;;;;;;;;;;;;;16.05;55.90;100430.28;4863647;29;1120;-47
2022/11/19 10:11:03;;;;;;;;;;;;;;;15.95;55.92;100447.59;4836256;29;1070;-43
2022/11/19 10:13:47;;;;;;;;;;;;;;;17.37;53.76;100445.56;4864759;29;2462;-43
2022/11/19 10:16:18;;;;;;;;;;;;;;;16.67;55.30;100441.84;4865149;29;1903;-47
2022/11/19 10:18:44;;;;;;;;;;;;;;;16.36;55.91;100439.25;4875915;29;1201;-48
2022/11/19 10:21:13;;;;;;;;;;;;;;;16.28;56.20;100447.22;4864909;29;1212;-45
2022/11/19 10:23:39;;;;;;;;;;;;;;;17.63;52.98;100451.66;4838980;29;1328;-46
2022/11/19 10:26:05;;;;;;;;;;;;;;;16.75;55.10;100460.47;4846204;29;1108;-46
2022/11/19 10:28:34;;;;;;;;;;;;;;;16.46;55.68;100448.53;4830125;29;1156;-44
2022/11/19 10:31:15;;;;;;;;;;;;;;;16.35;55.73;100450.50;4855286;29;953;-44
2022/11/19 10:33:51;;;;;;;;;;;;;;;16.21;55.89;100447.53;4846345;29;1125;-45
2022/11/19 10:36:21;;;;;;;;;;;;;;;16.08;55.99;100446.19;4846206;29;1902;-43
2022/11/19 10:38:52;;;;;;;;;;;;;;;17.03;54.64;100458.16;4826360;29;1261;-44
2022/11/19 10:41:20;;;;;;;;;;;;;;;17.10;54.46;100455.91;4844609;29;1313;-44
2022/11/19 10:43:47;;;;;;;;;;;;;;;16.54;55.71;100467.19;4840338;29;2485;-46
2022/11/19 10:46:13;;;;;;;;;;;;;;;16.36;55.79;100454.88;4829733;29;1140;-47
2022/11/19 10:48:40;;;;;;;;;;;;;;;16.24;55.71;100460.69;4830102;29;1192;-47
2022/11/19 10:51:13;;;;;;;;;;;;;;;16.10;56.20;100465.09;4829664;29;1240;-46
2022/11/19 10:53:38;;;;;;;;;;;;;;;16.05;55.96;100469.50;4829517;29;1260;-46
2022/11/19 10:56:24;;;;;;;;;;;;;;;17.43;53.74;100469.97;4829651;29;1978;-43
2022/11/19 10:58:53;;;;;;;;;;;;;;;16.64;55.72;100475.34;4835771;29;1915;-47
2022/11/19 11:01:28;;;;;;;;;;;;;;;16.36;56.12;100479.59;4829174;29;1292;-45
2022/11/19 11:03:59;;;;;;;;;;;;;;;16.21;56.02;100480.44;4846258;29;1248;-47
2022/11/19 11:06:25;;;;;;;;;;;;;;;16.08;56.07;100493.63;4835080;29;1225;-48
2022/11/19 11:08:51;;;;;;;;;;;;;;;16.04;55.96;100484.31;4845545;29;1160;-49
2022/11/19 11:11:22;;;;;;;;;;;;;;;17.28;54.29;100489.31;4845625;29;1184;-47
2022/11/19 11:16:43;;;;;;;;;;;;;;;16.39;56.18;100479.03;4831799;29;1969;-49
2022/11/19 11:19:18;;;;;;;;;;;;;;;16.22;55.97;100482.91;4834819;29;1085;-47
2022/11/19 11:21:43;;;;;;;;;;;;;;;16.48;56.20;100476.50;4829274;29;1264;-46
2022/11/19 11:24:12;;;;;;;;;;;;;;;17.45;53.84;100484.25;4841938;29;1177;-47
2022/11/19 11:26:38;;;;;;;;;;;;;;;16.65;56.00;100476.16;4847297;29;1279;-51
2022/11/19 11:29:04;;;;;;;;;;;;;;;16.45;56.13;100483.38;4847701;29;1263;-46
2022/11/19 11:31:39;;;;;;;;;;;;;;;16.29;56.02;100496.34;4863721;29;1231;-46
2022/11/19 11:34:06;;;;;;;;;;;;;;;16.12;56.33;100487.59;4863724;29;1196;-49
2022/11/19 11:36:32;;;;;;;;;;;;;;;16.11;56.21;100505.16;4834273;29;1907;-46
2022/11/19 11:38:58;;;;;;;;;;;;;;;17.07;54.86;100508.69;4862119;29;1239;-46
2022/11/19 11:41:24;;;;;;;;;;;;;;;16.99;54.89;100512.03;4851264;29;1125;-48
2022/11/19 11:44:22;;;;;;;;;;;;;;;16.53;56.11;100510.25;4844812;29;2241;-48
2022/11/19 11:46:48;;;;;;;;;;;;;;;16.30;56.12;100502.63;4812201;29;1442;-49
2022/11/19 11:49:20;;;;;;;;;;;;;;;16.17;56.26;100495.81;4857802;29;941;-44
2022/11/19 11:51:46;;;;;;;;;;;;;;;16.10;56.36;100498.03;4844563;29;1245;-42
2022/11/19 11:54:15;;;;;;;;;;;;;;;15.99;56.42;100495.31;4863235;29;1260;-46
2022/11/19 11:56:41;;;;;;;;;;;;;;;17.09;55.19;100498.22;4863597;29;1907;-45
2022/11/19 11:59:12;;;;;;;;;;;;;;;16.99;55.19;100490.03;4847512;29;1275;-45
2022/11/19 12:01:39;;;;;;;;;;;;;;;16.47;56.49;100480.38;4846719;29;1152;-44
2022/11/19 12:04:08;;;;;;;;;;;;;;;16.30;56.34;100487.00;4845630;29;1172;-43
2022/11/19 12:06:36;;;;;;;;;;;;;;;16.18;56.41;100479.06;4857449;29;1191;-45
2022/11/19 12:09:02;;;;;;;;;;;;;;;16.05;56.44;100475.00;4857244;29;1297;-48
2022/11/19 12:11:52;;;;;;;;;;;;;;;15.99;56.30;100476.13;4851407;29;1129;-46
2022/11/19 12:14:17;;;;;;;;;;;;;;;16.08;56.70;100471.69;4853972;29;2480;-52
2022/11/19 12:17:02;;;;;;;;;;;;;;;17.47;54.15;100470.22;4850176;29;1915;-43
2022/11/19 12:19:33;;;;;;;;;;;;;;;16.61;56.35;100473.19;4851735;29;1124;-47
2022/11/19 12:22:17;;;;;;;;;;;;;;;16.29;56.79;100465.34;4849136;29;1137;-46
2022/11/19 12:25:02;;;;;;;;;;;;;;;16.14;56.44;100466.19;4865596;29;1179;-45
2022/11/19 12:27:33;;;;;;;;;;;;;;;16.07;56.35;100466.47;4867523;29;1199;-45
2022/11/19 12:30:05;;;;;;;;;;;;;;;16.81;55.92;100475.00;4867430;29;1219;-46
2022/11/19 12:32:40;;;;;;;;;;;;;;;17.09;55.17;100472.69;4882102;29;1151;-45
2022/11/19 12:35:45;;;;;;;;;;;;;;;16.50;56.53;100466.09;4850404;29;1109;-45
2022/11/19 12:38:10;;;;;;;;;;;;;;;16.28;56.47;100455.47;4809718;29;1914;-45
2022/11/19 12:41:02;;;;;;;;;;;;;;;16.16;56.40;100453.84;4809806;29;1133;-44
2022/11/19 12:43:34;;;;;;;;;;;;;;;16.08;56.49;100462.66;4821312;29;2229;-42
2022/11/19 12:46:06;;;;;;;;;;;;;;;16.51;56.30;100459.47;4849634;29;1105;-43
2022/11/19 12:48:38;;;;;;;;;;;;;;;17.22;54.77;100462.97;4866757;29;1116;-49
2022/11/19 12:51:06;;;;;;;;;;;;;;;16.52;56.34;100461.97;4850027;29;1128;-45
2022/11/19 12:53:32;;;;;;;;;;;;;;;16.33;56.71;100464.50;4866517;29;1109;-44
2022/11/19 12:56:16;;;;;;;;;;;;;;;16.17;56.75;100466.47;4875581;29;1124;-45
2022/11/19 12:58:48;;;;;;;;;;;;;;;16.11;56.74;100466.75;4867610;29;1199;-46
2022/11/19 13:01:17;;;;;;;;;;;;;;;17.60;54.21;100477.81;4866962;29;1176;-44
2022/11/19 13:04:01;;;;;;;;;;;;;;;16.80;56.20;100483.53;4850562;29;1212;-49
2022/11/19 13:06:28;;;;;;;;;;;;;;;16.38;56.84;100461.75;4868270;29;1244;-46
2022/11/19 13:08:55;;;;;;;;;;;;;;;16.24;56.65;100467.00;4867628;29;1124;-47
2022/11/19 13:11:35;;;;;;;;;;;;;;;16.19;56.67;100474.44;4866103;29;1194;-43
2022/11/19 13:14:21;;;;;;;;;;;;;;;16.07;56.42;100474.72;4865847;29;2704;-47